createdAt,value
2018-05-07T00:02:15.170Z,17.30
2018-05-07T00:04:43.743Z,17.30
2018-05-07T00:07:12.281Z,17.30
2018-05-07T00:09:40.835Z,17.30
2018-05-07T00:12:09.388Z,17.20
2018-05-07T00:14:37.950Z,17.10
2018-05-07T00:17:07.279Z,17.20
2018-05-07T00:19:35.825Z,17.20
2018-05-07T00:22:05.132Z,17.30
2018-05-07T00:24:34.446Z,17.40
2018-05-07T00:27:03.002Z,17.40
2018-05-07T00:29:31.591Z,17.30
2018-05-07T00:32:00.165Z,17.40
2018-05-07T00:34:28.694Z,17.60
2018-05-07T00:36:57.251Z,17.30
2018-05-07T00:39:25.825Z,17.30
2018-05-07T00:41:55.179Z,17.20
2018-05-07T00:44:23.737Z,17.20
2018-05-07T00:46:52.306Z,17.40
2018-05-07T00:49:20.875Z,17.30
2018-05-07T00:51:49.417Z,17.30
2018-05-07T00:54:18.731Z,17.10
2018-05-07T00:56:47.284Z,17.10
2018-05-07T00:59:15.839Z,17.10
2018-05-07T01:01:45.426Z,17.10
2018-05-07T01:04:13.978Z,17.10
2018-05-07T01:06:42.539Z,16.90
2018-05-07T01:09:11.091Z,17.10
2018-05-07T01:11:40.426Z,17.10
2018-05-07T01:14:08.965Z,17.10
2018-05-07T01:16:37.565Z,16.90
2018-05-07T01:19:06.154Z,16.90
2018-05-07T01:21:34.727Z,16.70
2018-05-07T01:24:04.045Z,16.70
2018-05-07T01:26:32.606Z,16.70
2018-05-07T01:29:01.935Z,17.10
2018-05-07T01:31:30.698Z,17.10
2018-05-07T01:34:00.030Z,16.90
2018-05-07T01:36:28.618Z,16.90
2018-05-07T01:38:57.189Z,16.70
2018-05-07T01:41:25.735Z,16.50
2018-05-07T01:43:54.330Z,16.60
2018-05-07T01:46:22.969Z,16.90
2018-05-07T01:48:51.542Z,17.00
2018-05-07T01:51:20.115Z,17.00
2018-05-07T01:53:48.665Z,17.00
2018-05-07T01:56:17.234Z,16.90
2018-05-07T01:58:45.797Z,16.70
2018-05-07T02:01:14.511Z,16.30
2018-05-07T02:03:43.070Z,15.90
2018-05-07T02:06:11.629Z,15.60
2018-05-07T02:08:40.199Z,15.50
2018-05-07T02:11:08.770Z,15.60
2018-05-07T02:13:38.106Z,15.60
2018-05-07T02:16:06.662Z,15.60
2018-05-07T02:18:35.225Z,15.40
2018-05-07T02:21:04.551Z,15.70
2018-05-07T02:23:33.107Z,15.70
2018-05-07T02:26:02.429Z,15.90
2018-05-07T02:28:30.981Z,15.90
2018-05-07T02:30:59.535Z,15.80
2018-05-07T02:33:28.102Z,15.70
2018-05-07T02:35:56.653Z,15.70
2018-05-07T02:38:25.986Z,15.80
2018-05-07T02:40:54.542Z,15.70
2018-05-07T02:43:23.886Z,15.60
2018-05-07T02:45:52.451Z,15.50
2018-05-07T02:48:21.002Z,15.60
2018-05-07T02:50:55.953Z,15.50
2018-05-07T02:53:24.457Z,15.60
2018-05-07T02:55:52.965Z,15.70
2018-05-07T02:58:22.274Z,15.80
2018-05-07T03:00:50.814Z,15.80
2018-05-07T03:03:19.325Z,15.70
2018-05-07T03:05:48.601Z,15.60
2018-05-07T03:08:17.111Z,15.60
2018-05-07T03:10:46.430Z,15.50
2018-05-07T03:13:14.933Z,15.50
2018-05-07T03:15:43.432Z,15.30
2018-05-07T03:18:11.942Z,15.20
2018-05-07T03:20:40.453Z,15.20
2018-05-07T03:23:08.965Z,15.20
2018-05-07T03:25:37.473Z,14.80
2018-05-07T03:28:05.986Z,14.90
2018-05-07T03:30:35.261Z,14.90
2018-05-07T03:33:03.773Z,14.90
2018-05-07T03:35:33.045Z,14.90
2018-05-07T03:38:01.549Z,14.90
2018-05-07T03:40:30.877Z,14.80
2018-05-07T03:43:00.120Z,14.70
2018-05-07T03:45:28.620Z,14.70
2018-05-07T03:47:57.452Z,14.80
2018-05-07T03:50:25.968Z,14.40
2018-05-07T03:52:54.469Z,14.40
2018-05-07T03:55:22.969Z,14.30
2018-05-07T03:57:52.242Z,14.00
2018-05-07T04:00:20.761Z,13.90
2018-05-07T04:02:49.293Z,14.00
2018-05-07T04:05:17.810Z,13.70
2018-05-07T04:07:47.091Z,13.40
2018-05-07T04:10:15.610Z,13.40
2018-05-07T04:12:44.885Z,13.40
2018-05-07T04:15:13.390Z,13.30
2018-05-07T04:17:59.994Z,13.20
2018-05-07T04:20:47.288Z,13.30
2018-05-07T04:23:34.575Z,13.30
2018-05-07T04:26:03.809Z,13.40
2018-05-07T04:28:32.339Z,13.40
2018-05-07T04:31:00.849Z,13.30
2018-05-07T04:33:29.354Z,13.20
2018-05-07T04:35:57.856Z,13.30
2018-05-07T04:38:27.134Z,13.20
2018-05-07T04:40:55.640Z,13.20
2018-05-07T04:43:24.913Z,13.40
2018-05-07T04:45:53.417Z,13.40
2018-05-07T04:48:22.678Z,13.70
2018-05-07T04:50:51.189Z,13.70
2018-05-07T04:53:19.698Z,13.50
2018-05-07T04:55:48.201Z,13.50
2018-05-07T04:58:16.713Z,13.60
2018-05-07T05:00:45.545Z,13.70
2018-05-07T05:03:14.059Z,13.70
2018-05-07T05:05:56.903Z,13.70
2018-05-07T05:08:43.177Z,13.70
2018-05-07T05:11:11.873Z,13.50
2018-05-07T05:13:52.650Z,13.60
2018-05-07T05:16:21.248Z,13.60
2018-05-07T05:18:49.811Z,13.70
2018-05-07T05:21:18.405Z,13.60
2018-05-07T05:23:47.107Z,13.70
2018-05-07T05:26:16.621Z,13.80
2018-05-07T05:28:45.387Z,13.80
2018-05-07T05:31:13.990Z,13.90
2018-05-07T05:33:42.542Z,13.90
2018-05-07T05:36:11.131Z,14.10
2018-05-07T05:38:39.694Z,14.20
2018-05-07T05:41:08.286Z,14.10
2018-05-07T05:43:36.928Z,14.10
2018-05-07T05:46:05.441Z,14.20
2018-05-07T05:48:34.018Z,14.30
2018-05-07T05:51:02.570Z,14.30
2018-05-07T05:53:31.138Z,14.40
2018-05-07T05:55:59.692Z,14.40
2018-05-07T05:58:28.262Z,14.50
2018-05-07T06:00:56.821Z,14.50
2018-05-07T06:03:25.377Z,14.60
2018-05-07T06:05:53.931Z,14.70
2018-05-07T06:08:22.503Z,14.80
2018-05-07T06:10:51.073Z,14.80
2018-05-07T06:13:19.620Z,14.90
2018-05-07T06:15:48.171Z,14.90
2018-05-07T06:18:16.722Z,14.90
2018-05-07T06:20:45.279Z,15.10
2018-05-07T06:23:13.847Z,15.10
2018-05-07T06:25:42.402Z,15.10
2018-05-07T06:28:10.962Z,15.30
2018-05-07T06:30:39.941Z,15.30
2018-05-07T06:33:08.599Z,15.40
2018-05-07T06:35:37.159Z,15.40
2018-05-07T06:38:05.724Z,15.50
2018-05-07T06:40:34.285Z,15.50
2018-05-07T06:43:02.889Z,15.50
2018-05-07T06:45:32.874Z,15.60
2018-05-07T06:48:01.479Z,15.70
2018-05-07T06:50:30.372Z,15.80
2018-05-07T06:52:59.710Z,15.80
2018-05-07T06:55:28.514Z,15.90
2018-05-07T06:57:57.063Z,15.80
2018-05-07T07:00:25.647Z,15.90
2018-05-07T07:02:54.289Z,15.90
2018-05-07T07:05:22.910Z,16.10
2018-05-07T07:07:51.551Z,16.20
2018-05-07T07:10:20.886Z,16.30
2018-05-07T07:12:50.083Z,16.20
2018-05-07T07:15:18.868Z,16.20
2018-05-07T07:17:47.503Z,16.30
2018-05-07T07:22:33.297Z,16.50
2018-05-07T07:25:01.820Z,16.50
2018-05-07T07:27:30.528Z,16.60
2018-05-07T07:29:59.110Z,16.60
2018-05-07T07:32:27.639Z,16.70
2018-05-07T07:34:56.142Z,16.70
2018-05-07T07:37:25.415Z,16.90
2018-05-07T07:39:53.913Z,16.80
2018-05-07T07:42:22.425Z,16.90
2018-05-07T07:44:50.926Z,17.00
2018-05-07T07:47:19.454Z,17.00
2018-05-07T07:49:47.995Z,17.20
2018-05-07T07:52:16.505Z,17.30
2018-05-07T07:54:45.009Z,17.30
2018-05-07T07:57:13.513Z,17.40
2018-05-07T07:59:42.781Z,17.50
2018-05-07T08:02:11.327Z,17.50
2018-05-07T08:04:39.829Z,17.60
2018-05-07T08:07:08.365Z,17.60
2018-05-07T08:09:36.906Z,17.70
2018-05-07T08:12:05.514Z,17.80
2018-05-07T08:14:34.049Z,17.70
2018-05-07T08:17:02.609Z,17.80
2018-05-07T08:19:31.168Z,17.70
2018-05-07T08:22:00.519Z,18.10
2018-05-07T08:24:29.087Z,18.10
2018-05-07T08:26:57.666Z,18.20
2018-05-07T08:29:26.235Z,18.20
2018-05-07T08:31:54.783Z,18.20
2018-05-07T08:34:23.337Z,18.30
2018-05-07T08:36:51.884Z,18.30
2018-05-07T08:39:20.449Z,18.40
2018-05-07T08:41:49.067Z,18.50
2018-05-07T08:44:17.613Z,18.60
2018-05-07T08:46:46.958Z,18.50
2018-05-07T08:49:15.512Z,18.50
2018-05-07T08:51:44.076Z,18.40
2018-05-07T08:54:13.432Z,18.60
2018-05-07T08:56:42.019Z,18.50
2018-05-07T08:59:10.587Z,18.60
2018-05-07T09:01:39.140Z,18.80
2018-05-07T09:04:07.713Z,18.70
2018-05-07T09:06:37.019Z,18.80
2018-05-07T09:09:06.435Z,18.90
2018-05-07T09:11:34.983Z,18.80
2018-05-07T09:14:03.537Z,19.00
2018-05-07T09:16:32.104Z,19.00
2018-05-07T09:19:00.655Z,19.10
2018-05-07T09:21:29.973Z,19.20
2018-05-07T09:23:58.536Z,19.20
2018-05-07T09:26:27.842Z,19.20
2018-05-07T09:28:57.181Z,19.00
2018-05-07T09:31:25.790Z,19.00
2018-05-07T09:33:54.342Z,19.50
2018-05-07T09:36:22.894Z,19.40
2018-05-07T09:38:52.218Z,19.50
2018-05-07T09:41:20.778Z,19.50
2018-05-07T09:43:50.095Z,19.70
2018-05-07T09:46:18.666Z,19.70
2018-05-07T09:48:47.999Z,19.90
2018-05-07T09:51:16.550Z,19.90
2018-05-07T09:53:45.874Z,19.70
2018-05-07T09:56:14.430Z,19.70
2018-05-07T09:58:55.805Z,20.00
2018-05-07T10:01:24.357Z,20.00
2018-05-07T10:03:52.934Z,20.00
2018-05-07T10:06:22.286Z,20.10
2018-05-07T10:08:51.611Z,19.90
2018-05-07T10:11:20.174Z,19.90
2018-05-07T10:13:49.481Z,20.00
2018-05-07T10:16:18.039Z,19.90
2018-05-07T10:18:46.590Z,20.10
2018-05-07T10:21:15.153Z,20.40
2018-05-07T10:23:43.710Z,20.40
2018-05-07T10:26:13.039Z,20.30
2018-05-07T10:28:41.611Z,20.30
2018-05-07T10:31:10.171Z,20.50
2018-05-07T10:33:39.497Z,20.70
2018-05-07T10:36:08.043Z,20.70
2018-05-07T10:38:36.615Z,20.40
2018-05-07T10:41:05.165Z,20.40
2018-05-07T10:43:33.726Z,20.60
2018-05-07T10:46:02.283Z,20.80
2018-05-07T10:48:31.806Z,20.80
2018-05-07T10:51:00.360Z,20.80
2018-05-07T10:53:28.919Z,20.60
2018-05-07T10:55:58.297Z,20.90
2018-05-07T10:58:26.869Z,20.80
2018-05-07T11:00:55.415Z,21.10
2018-05-07T11:03:23.951Z,21.00
2018-05-07T11:05:52.514Z,21.00
2018-05-07T11:08:21.066Z,21.10
2018-05-07T11:10:49.627Z,21.20
2018-05-07T11:13:18.978Z,21.30
2018-05-07T11:15:47.529Z,21.30
2018-05-07T11:18:16.093Z,21.20
2018-05-07T11:20:44.666Z,21.30
2018-05-07T11:25:30.925Z,21.10
2018-05-07T11:28:00.197Z,21.20
2018-05-07T11:30:28.715Z,21.20
2018-05-07T11:32:57.981Z,21.50
2018-05-07T11:35:26.490Z,21.50
2018-05-07T11:37:55.757Z,21.50
2018-05-07T11:40:24.260Z,21.50
2018-05-07T11:42:52.767Z,21.80
2018-05-07T11:45:22.057Z,21.70
2018-05-07T11:47:51.332Z,21.50
2018-05-07T11:50:19.843Z,21.50
2018-05-07T11:52:49.120Z,21.50
2018-05-07T11:55:17.661Z,21.50
2018-05-07T11:57:46.207Z,21.90
2018-05-07T12:00:15.477Z,21.90
2018-05-07T12:02:44.014Z,21.90
2018-05-07T12:05:12.521Z,22.10
2018-05-07T12:07:41.035Z,21.90
2018-05-07T12:10:09.560Z,21.80
2018-05-07T12:12:38.081Z,22.10
2018-05-07T12:15:06.595Z,22.40
2018-05-07T12:17:35.891Z,22.30
2018-05-07T12:20:05.459Z,22.20
2018-05-07T12:22:36.382Z,22.40
2018-05-07T12:25:05.008Z,22.30
2018-05-07T12:27:33.545Z,22.40
2018-05-07T12:30:02.109Z,22.70
2018-05-07T12:35:25.814Z,22.70
2018-05-07T12:37:54.331Z,22.70
2018-05-07T12:40:22.833Z,22.70
2018-05-07T12:42:51.337Z,22.70
2018-05-07T12:45:19.837Z,22.80
2018-05-07T12:47:48.349Z,22.90
2018-05-07T12:50:18.854Z,23.10
2018-05-07T12:52:47.419Z,23.10
2018-05-07T12:55:15.970Z,22.90
2018-05-07T12:57:44.555Z,23.20
2018-05-07T13:00:13.134Z,23.10
2018-05-07T13:02:41.722Z,23.60
2018-05-07T13:05:10.315Z,23.80
2018-05-07T13:07:38.892Z,23.40
2018-05-07T13:10:07.471Z,23.20
2018-05-07T13:12:36.056Z,23.30
2018-05-07T13:15:04.646Z,23.50
2018-05-07T13:17:34.010Z,23.70
2018-05-07T13:20:02.590Z,23.70
2018-05-07T13:22:31.180Z,23.60
2018-05-07T13:24:59.761Z,23.70
2018-05-07T13:27:28.391Z,23.80
2018-05-07T13:29:56.957Z,23.70
2018-05-07T13:32:25.539Z,23.70
2018-05-07T13:34:54.114Z,23.90
2018-05-07T13:37:22.698Z,24.00
2018-05-07T13:39:51.247Z,23.90
2018-05-07T13:42:20.581Z,23.90
2018-05-07T13:44:49.135Z,23.90
2018-05-07T13:47:17.718Z,24.00
2018-05-07T13:49:47.072Z,24.20
2018-05-07T13:52:15.654Z,24.20
2018-05-07T13:54:44.238Z,24.40
2018-05-07T13:57:12.853Z,24.20
2018-05-07T13:59:41.419Z,24.40
2018-05-07T14:02:10.000Z,24.60
2018-05-07T14:04:38.565Z,24.60
2018-05-07T14:07:07.130Z,24.80
2018-05-07T14:09:35.675Z,24.50
2018-05-07T14:12:04.209Z,24.50
2018-05-07T14:14:32.821Z,24.80
2018-05-07T14:17:02.042Z,25.00
2018-05-07T14:19:30.580Z,24.90
2018-05-07T14:21:59.179Z,25.00
2018-05-07T14:24:27.755Z,24.90
2018-05-07T14:26:56.313Z,25.00
2018-05-07T14:29:24.884Z,24.90
2018-05-07T14:31:54.206Z,24.90
2018-05-07T14:34:22.769Z,24.80
2018-05-07T14:36:52.119Z,25.10
2018-05-07T14:39:20.684Z,25.10
2018-05-07T14:41:49.249Z,25.10
2018-05-07T14:44:17.813Z,25.30
2018-05-07T14:46:47.155Z,25.20
2018-05-07T14:49:15.713Z,25.20
2018-05-07T14:51:44.264Z,25.50
2018-05-07T14:54:12.796Z,26.00
2018-05-07T14:56:41.342Z,26.00
2018-05-07T14:59:09.885Z,26.40
2018-05-07T15:01:39.187Z,26.40
2018-05-07T15:04:07.727Z,26.40
2018-05-07T15:06:36.252Z,26.50
2018-05-07T15:09:05.805Z,27.00
2018-05-07T15:11:34.317Z,27.10
2018-05-07T15:14:20.859Z,27.00
2018-05-07T15:16:49.375Z,27.00
2018-05-07T15:19:18.704Z,27.10
2018-05-07T15:21:47.246Z,27.10
2018-05-07T15:24:15.802Z,27.10
2018-05-07T15:26:44.361Z,27.10
2018-05-07T15:29:12.980Z,27.00
2018-05-07T15:31:41.450Z,27.20
2018-05-07T15:34:10.013Z,27.20
2018-05-07T15:36:38.545Z,27.40
2018-05-07T15:39:07.077Z,27.60
2018-05-07T15:41:35.618Z,27.60
2018-05-07T15:44:04.181Z,27.80
2018-05-07T15:46:32.746Z,27.30
2018-05-07T15:49:01.298Z,27.80
2018-05-07T15:51:29.849Z,27.60
2018-05-07T15:53:59.167Z,27.80
2018-05-07T15:56:28.498Z,28.10
2018-05-07T15:58:57.028Z,28.10
2018-05-07T16:01:25.553Z,27.90
2018-05-07T16:03:54.070Z,27.70
2018-05-07T16:06:22.623Z,27.90
2018-05-07T16:08:51.214Z,28.10
2018-05-07T16:11:19.779Z,27.90
2018-05-07T16:13:48.296Z,27.70
2018-05-07T16:16:16.829Z,27.50
2018-05-07T16:18:46.191Z,27.40
2018-05-07T16:21:14.654Z,27.40
2018-05-07T16:23:43.166Z,27.40
2018-05-07T16:26:11.672Z,27.50
2018-05-07T16:28:40.986Z,27.50
2018-05-07T16:31:09.523Z,27.40
2018-05-07T16:33:48.229Z,27.60
2018-05-07T16:36:20.840Z,27.80
2018-05-07T16:38:50.143Z,27.70
2018-05-07T16:41:18.652Z,27.70
2018-05-07T16:43:47.165Z,27.80
2018-05-07T16:46:15.670Z,27.70
2018-05-07T16:48:44.221Z,27.70
2018-05-07T16:51:12.737Z,27.60
2018-05-07T16:53:41.237Z,27.30
2018-05-07T16:56:09.745Z,27.60
2018-05-07T16:58:38.250Z,27.70
2018-05-07T17:01:06.766Z,27.60
2018-05-07T17:03:35.304Z,27.40
2018-05-07T17:06:03.858Z,27.30
2018-05-07T17:08:33.141Z,27.60
2018-05-07T17:11:01.655Z,27.60
2018-05-07T17:13:30.934Z,27.30
2018-05-07T17:15:59.446Z,27.30
2018-05-07T17:18:27.962Z,27.10
2018-05-07T17:20:56.478Z,26.90
2018-05-07T17:23:25.187Z,27.10
2018-05-07T17:25:53.522Z,27.10
2018-05-07T17:28:22.035Z,27.00
2018-05-07T17:30:50.538Z,26.80
2018-05-07T17:33:19.042Z,26.70
2018-05-07T17:35:47.546Z,26.90
2018-05-07T17:38:16.062Z,26.60
2018-05-07T17:40:45.341Z,26.70
2018-05-07T17:43:13.862Z,26.70
2018-05-07T17:46:02.767Z,26.40
2018-05-07T17:48:49.277Z,26.30
2018-05-07T17:51:17.827Z,26.20
2018-05-07T17:53:46.368Z,26.20
2018-05-07T17:56:14.898Z,26.10
2018-05-07T17:58:43.407Z,25.50
2018-05-07T18:01:11.923Z,25.30
2018-05-07T18:03:40.426Z,25.50
2018-05-07T18:06:08.933Z,25.50
2018-05-07T18:08:37.437Z,25.20
2018-05-07T18:11:05.941Z,25.30
2018-05-07T18:13:34.458Z,25.10
2018-05-07T18:16:03.002Z,24.70
2018-05-07T18:18:31.522Z,24.70
2018-05-07T18:21:00.070Z,24.30
2018-05-07T18:23:28.583Z,24.50
2018-05-07T18:25:57.853Z,23.50
2018-05-07T18:28:26.361Z,23.50
2018-05-07T18:30:55.633Z,23.80
2018-05-07T18:33:24.158Z,23.80
2018-05-07T18:35:52.663Z,23.30
2018-05-07T18:38:21.181Z,22.90
2018-05-07T18:40:49.697Z,22.70
2018-05-07T18:43:18.221Z,22.50
2018-05-07T18:45:46.733Z,22.70
2018-05-07T18:48:15.250Z,22.50
2018-05-07T18:50:43.757Z,22.30
2018-05-07T18:53:12.275Z,22.10
2018-05-07T18:55:40.786Z,22.00
2018-05-07T18:58:09.302Z,21.70
2018-05-07T19:00:37.958Z,21.70
2018-05-07T19:03:06.466Z,21.50
2018-05-07T19:05:34.991Z,21.10
2018-05-07T19:08:03.498Z,21.10
2018-05-07T19:10:32.781Z,21.00
2018-05-07T19:13:01.298Z,21.00
2018-05-07T19:15:29.841Z,20.80
2018-05-07T19:17:58.355Z,20.50
2018-05-07T19:20:26.866Z,20.20
2018-05-07T19:22:55.388Z,20.00
2018-05-07T19:25:23.925Z,20.10
2018-05-07T19:27:52.455Z,20.10
2018-05-07T19:30:21.137Z,19.80
2018-05-07T19:32:49.657Z,19.40
2018-05-07T19:35:18.538Z,19.40
2018-05-07T19:37:47.072Z,19.50
2018-05-07T19:40:15.585Z,19.40
2018-05-07T19:42:44.085Z,19.20
2018-05-07T19:45:13.361Z,19.10
2018-05-07T19:47:41.874Z,19.10
2018-05-07T19:50:10.430Z,18.90
2018-05-07T19:52:38.942Z,18.90
2018-05-07T19:55:07.450Z,18.80
2018-05-07T19:57:35.954Z,18.60
2018-05-07T20:00:04.593Z,18.50
2018-05-07T20:02:33.111Z,18.40
2018-05-07T20:05:01.618Z,18.40
2018-05-07T20:07:30.126Z,18.30
2018-05-07T20:09:59.401Z,18.10
2018-05-07T20:12:27.976Z,18.10
2018-05-07T20:14:56.465Z,18.20
2018-05-07T20:17:24.973Z,18.30
2018-05-07T20:19:54.317Z,18.70
2018-05-07T20:22:22.787Z,18.60
2018-05-07T20:24:51.297Z,18.50
2018-05-07T20:27:19.804Z,18.70
2018-05-07T20:29:48.310Z,18.80
2018-05-07T20:32:16.823Z,18.70
2018-05-07T20:34:45.341Z,19.00
2018-05-07T20:37:13.845Z,19.20
2018-05-07T20:39:43.122Z,19.20
2018-05-07T20:42:11.625Z,19.20
2018-05-07T20:44:40.941Z,19.10
2018-05-07T20:47:09.502Z,19.10
2018-05-07T20:49:37.986Z,19.00
2018-05-07T20:52:07.277Z,18.90
2018-05-07T20:54:35.785Z,18.90
2018-05-07T20:57:05.061Z,18.80
2018-05-07T20:59:33.574Z,18.80
2018-05-07T21:02:02.077Z,18.80
2018-05-07T21:04:30.585Z,18.80
2018-05-07T21:06:59.086Z,18.80
2018-05-07T21:09:27.593Z,18.80
2018-05-07T21:11:56.869Z,18.70
2018-05-07T21:14:25.399Z,18.70
2018-05-07T21:16:53.902Z,18.70
2018-05-07T21:19:22.411Z,18.70
2018-05-07T21:21:50.923Z,18.60
2018-05-07T21:24:20.192Z,18.60
2018-05-07T21:26:48.697Z,18.60
2018-05-07T21:29:17.970Z,18.40
2018-05-07T21:31:46.478Z,18.40
2018-05-07T21:34:15.758Z,18.40
2018-05-07T21:36:44.262Z,18.40
2018-05-07T21:39:13.535Z,18.40
2018-05-07T21:41:42.042Z,18.40
2018-05-07T21:44:11.320Z,18.40
2018-05-07T21:46:39.833Z,18.30
2018-05-07T21:49:09.106Z,18.40
2018-05-07T21:51:37.623Z,18.30
2018-05-07T21:54:06.130Z,18.40
2018-05-07T21:56:34.637Z,18.40
2018-05-07T21:59:03.142Z,18.40
2018-05-07T22:01:31.651Z,18.40
2018-05-07T22:04:00.158Z,18.30
2018-05-07T22:06:28.668Z,18.30
2018-05-07T22:08:57.179Z,18.30
2018-05-07T22:11:26.455Z,18.30
2018-05-07T22:13:54.959Z,18.30
2018-05-07T22:16:24.229Z,18.30
2018-05-07T22:18:52.779Z,18.20
2018-05-07T22:21:21.299Z,18.20
2018-05-07T22:23:50.573Z,18.30
2018-05-07T22:26:19.077Z,18.30
2018-05-07T22:28:47.583Z,18.30
2018-05-07T22:31:16.091Z,18.40
2018-05-07T22:33:44.594Z,18.40
2018-05-07T22:36:13.101Z,18.40
2018-05-07T22:38:41.605Z,18.40
2018-05-07T22:41:10.127Z,18.40
2018-05-07T22:43:38.646Z,18.40
2018-05-07T22:46:07.215Z,18.40
2018-05-07T22:48:35.722Z,18.30
2018-05-07T22:51:04.230Z,18.30
2018-05-07T22:53:33.530Z,18.10
2018-05-07T22:56:02.801Z,18.10
2018-05-07T22:58:31.310Z,18.10
2018-05-07T23:00:59.822Z,18.00
2018-05-07T23:03:28.336Z,17.90
2018-05-07T23:05:56.846Z,18.00
2018-05-07T23:08:25.358Z,17.90
2018-05-07T23:10:54.629Z,17.80
2018-05-07T23:13:23.136Z,17.80
2018-05-07T23:15:51.690Z,17.80
2018-05-07T23:18:20.202Z,17.70
2018-05-07T23:20:49.474Z,17.70
2018-05-07T23:23:17.978Z,17.70
2018-05-07T23:25:47.254Z,17.70
2018-05-07T23:28:15.762Z,17.70
2018-05-07T23:30:45.032Z,17.60
2018-05-07T23:33:13.538Z,17.60
2018-05-07T23:35:42.810Z,17.50
2018-05-07T23:38:11.314Z,17.50
2018-05-07T23:40:40.591Z,17.50
2018-05-07T23:43:09.097Z,17.50
2018-05-07T23:45:38.445Z,17.60
2018-05-07T23:48:06.952Z,17.60
2018-05-07T23:50:35.455Z,17.60
2018-05-07T23:53:03.963Z,17.60
2018-05-07T23:55:33.237Z,17.60
2018-05-07T23:58:01.750Z,17.60
